Time;durP1;ratioP1;P1;durP2;ratioP2;P2;SDS_P1;SDS_P2;PMS_P1;PMS_P2;Temp;Humidity;BMP_temperature;BMP_pressure;BME280_temperature;BME280_humidity;BME280_pressure;Samples;Min_cycle;Max_cycle;Signal;HPM_P1;HPM_P2
2022/07/17 00:00:04;;;;;;;4.80;2.78;;;14.20;90.70;;;;;;2071671;28;20021;-72
2022/07/17 00:01:07;;;;;;;5.38;2.92;;;14.10;90.80;;;;;;2080905;28;20030;-71
2022/07/17 00:02:08;;;;;;;5.22;2.85;;;14.10;90.80;;;;;;2081171;28;20029;-71
2022/07/17 00:03:10;;;;;;;4.40;2.88;;;14.10;90.90;;;;;;2080996;28;20087;-71
2022/07/17 00:04:11;;;;;;;5.15;2.83;;;14.00;90.90;;;;;;2080706;28;20029;-70
2022/07/17 00:05:12;;;;;;;5.30;2.70;;;14.00;91.00;;;;;;2080808;28;20104;-71
2022/07/17 00:06:14;;;;;;;4.45;2.80;;;14.00;91.00;;;;;;2089391;28;20028;-71
2022/07/17 00:07:15;;;;;;;4.43;2.53;;;14.00;91.00;;;;;;2080885;28;20021;-71
2022/07/17 00:08:16;;;;;;;4.32;2.78;;;14.00;91.00;;;;;;2073009;28;20110;-71
2022/07/17 00:09:16;;;;;;;5.43;2.70;;;14.00;90.90;;;;;;2081521;28;20427;-71
2022/07/17 00:10:17;;;;;;;4.30;2.70;;;14.00;90.70;;;;;;2081252;28;20029;-71
2022/07/17 00:11:18;;;;;;;5.03;2.60;;;13.90;90.30;;;;;;2081375;28;20033;-71
2022/07/17 00:12:19;;;;;;;5.15;2.80;;;13.90;90.30;;;;;;2081236;28;20056;-71
2022/07/17 00:13:20;;;;;;;4.82;3.00;;;13.90;90.00;;;;;;2081013;28;20099;-72
2022/07/17 00:14:20;;;;;;;4.75;3.00;;;13.90;89.40;;;;;;2088548;28;20036;-71
2022/07/17 00:15:21;;;;;;;5.43;2.70;;;13.90;89.30;;;;;;2080081;28;20017;-72
2022/07/17 00:16:22;;;;;;;5.38;3.10;;;13.90;89.00;;;;;;2071765;28;20112;-72
2022/07/17 00:17:23;;;;;;;5.18;2.92;;;13.90;89.00;;;;;;2080833;28;20017;-71
2022/07/17 00:18:24;;;;;;;5.10;2.85;;;13.90;89.00;;;;;;2080781;28;20020;-72
2022/07/17 00:19:25;;;;;;;4.63;2.90;;;13.90;88.80;;;;;;2080696;28;20029;-72
2022/07/17 00:20:28;;;;;;;5.47;3.10;;;13.90;88.70;;;;;;2080674;28;20032;-72
2022/07/17 00:21:28;;;;;;;5.72;3.25;;;13.90;88.90;;;;;;2080980;28;20866;-72
2022/07/17 00:22:29;;;;;;;5.65;3.03;;;13.90;89.10;;;;;;2080714;28;20018;-71
2022/07/17 00:23:29;;;;;;;5.15;3.20;;;13.90;89.40;;;;;;2071983;28;20384;-72
2022/07/17 00:24:31;;;;;;;6.70;2.90;;;13.90;89.30;;;;;;2072073;28;20064;-72
2022/07/17 00:25:34;;;;;;;5.78;3.00;;;13.90;89.40;;;;;;2080903;28;20025;-72
2022/07/17 00:26:35;;;;;;;5.65;3.05;;;13.90;89.60;;;;;;2080891;28;20543;-71
2022/07/17 00:27:38;;;;;;;4.63;3.20;;;13.80;89.60;;;;;;2072189;28;20041;-71
2022/07/17 00:28:38;;;;;;;5.63;3.03;;;13.90;90.00;;;;;;2072420;28;20022;-72
2022/07/17 00:29:39;;;;;;;4.95;2.90;;;13.80;90.10;;;;;;2080885;28;20032;-72
2022/07/17 00:30:40;;;;;;;6.95;3.10;;;13.80;90.10;;;;;;2081692;28;20040;-71
2022/07/17 00:31:42;;;;;;;6.47;3.33;;;13.80;90.30;;;;;;2073557;28;20129;-71
2022/07/17 00:32:43;;;;;;;4.38;2.90;;;13.80;90.30;;;;;;2081727;28;20041;-72
2022/07/17 00:33:43;;;;;;;5.38;3.30;;;13.80;90.50;;;;;;2090599;28;20064;-72
2022/07/17 00:34:44;;;;;;;5.30;3.33;;;13.80;90.70;;;;;;2083421;28;20479;-72
2022/07/17 00:35:46;;;;;;;5.88;3.20;;;13.80;90.80;;;;;;2082531;28;20041;-72
2022/07/17 00:36:47;;;;;;;4.57;3.03;;;13.80;90.90;;;;;;2081491;28;20037;-72
2022/07/17 00:37:48;;;;;;;4.47;3.05;;;13.70;91.10;;;;;;2082089;28;20056;-72
2022/07/17 00:38:49;;;;;;;5.80;3.20;;;13.80;91.50;;;;;;2081451;28;20029;-72
2022/07/17 00:39:50;;;;;;;4.03;2.67;;;13.80;91.80;;;;;;2081607;28;20545;-71
2022/07/17 00:40:58;;;;;;;5.70;3.10;;;13.70;91.80;;;;;;2081414;28;20108;-72
2022/07/17 00:41:58;;;;;;;3.63;2.80;;;13.70;92.00;;;;;;2081023;28;20176;-72
2022/07/17 00:42:59;;;;;;;4.18;2.80;;;13.70;92.10;;;;;;2088325;28;20470;-72
2022/07/17 00:44:08;;;;;;;4.13;2.85;;;13.70;92.20;;;;;;2088060;28;20036;-72
2022/07/17 00:45:10;;;;;;;5.20;2.70;;;13.70;92.20;;;;;;2071958;28;20045;-72
2022/07/17 00:46:10;;;;;;;6.07;2.63;;;13.60;92.40;;;;;;2072297;28;20705;-72
2022/07/17 00:47:19;;;;;;;4.78;2.67;;;13.60;92.60;;;;;;2080313;28;20040;-72
2022/07/17 00:48:20;;;;;;;3.80;2.70;;;13.60;93.90;;;;;;2080673;28;20036;-72
2022/07/17 00:49:21;;;;;;;5.72;2.70;;;13.60;94.10;;;;;;2080546;28;20096;-72
2022/07/17 00:50:28;;;;;;;4.75;2.50;;;13.60;94.60;;;;;;2071613;28;20087;-72
2022/07/17 00:51:28;;;;;;;5.07;2.65;;;13.60;94.40;;;;;;2071726;28;20026;-71
2022/07/17 00:52:29;;;;;;;4.25;2.45;;;13.60;94.50;;;;;;2071612;28;20577;-72
2022/07/17 00:53:34;;;;;;;5.57;2.80;;;13.50;94.80;;;;;;2080490;28;20400;-72
2022/07/17 00:54:38;;;;;;;5.45;2.60;;;13.50;94.90;;;;;;2080549;28;20400;-72
2022/07/17 00:55:40;;;;;;;6.30;3.00;;;13.50;95.00;;;;;;2080532;28;20021;-72
2022/07/17 00:56:45;;;;;;;5.53;2.85;;;13.50;95.00;;;;;;2071177;28;20034;-72
2022/07/17 00:57:48;;;;;;;3.90;2.60;;;13.40;95.00;;;;;;2072033;28;20703;-72
2022/07/17 00:58:50;;;;;;;4.30;2.50;;;13.40;95.00;;;;;;2071534;28;20529;-72
2022/07/17 00:59:50;;;;;;;4.45;2.80;;;13.40;94.90;;;;;;2071835;28;20029;-72
2022/07/17 01:00:54;;;;;;;5.55;2.72;;;13.30;94.90;;;;;;2071933;28;20056;-72
2022/07/17 01:01:55;;;;;;;4.00;2.83;;;13.30;95.00;;;;;;2072438;28;20053;-72
2022/07/17 01:02:56;;;;;;;3.90;2.85;;;13.30;94.90;;;;;;2080432;28;20108;-72
2022/07/17 01:03:57;;;;;;;4.32;2.53;;;13.30;94.90;;;;;;2080161;28;20748;-72
2022/07/17 01:04:58;;;;;;;5.40;2.80;;;13.30;94.90;;;;;;2080073;28;20048;-72
2022/07/17 01:05:59;;;;;;;5.55;2.95;;;13.30;94.90;;;;;;2079986;28;20173;-72
2022/07/17 01:07:00;;;;;;;6.32;3.30;;;13.20;94.90;;;;;;2079845;28;20534;-72
2022/07/17 01:08:01;;;;;;;4.93;3.13;;;13.20;94.60;;;;;;2080710;28;20055;-72
2022/07/17 01:09:02;;;;;;;5.10;3.65;;;13.20;94.40;;;;;;2079503;28;20041;-72
2022/07/17 01:10:03;;;;;;;5.18;3.72;;;13.20;94.30;;;;;;2079849;28;20047;-72
2022/07/17 01:11:05;;;;;;;6.07;3.90;;;13.20;94.20;;;;;;2071425;28;20615;-71
2022/07/17 01:12:09;;;;;;;7.88;4.20;;;13.20;94.00;;;;;;2071701;28;20053;-73
2022/07/17 01:13:09;;;;;;;6.90;3.95;;;13.20;93.60;;;;;;2079831;28;20041;-72
2022/07/17 01:14:11;;;;;;;7.10;4.00;;;13.20;93.50;;;;;;2080086;28;20040;-72
2022/07/17 01:15:12;;;;;;;5.47;3.80;;;13.20;93.50;;;;;;2079648;28;20038;-72
2022/07/17 01:16:13;;;;;;;5.93;3.92;;;13.20;93.00;;;;;;2080003;28;20033;-72
2022/07/17 01:17:17;;;;;;;4.93;3.33;;;13.30;92.90;;;;;;2079811;28;20033;-72
2022/07/17 01:18:18;;;;;;;5.50;3.38;;;13.30;92.70;;;;;;2079913;28;20042;-71
2022/07/17 01:19:20;;;;;;;4.45;3.50;;;13.30;92.40;;;;;;2080009;28;20025;-72
2022/07/17 01:20:20;;;;;;;5.63;3.30;;;13.30;92.30;;;;;;2080021;28;20029;-72
2022/07/17 01:21:22;;;;;;;4.65;3.15;;;13.30;92.20;;;;;;2080410;28;20422;-72
2022/07/17 01:22:23;;;;;;;5.95;3.40;;;13.30;92.10;;;;;;2080482;28;20143;-72
2022/07/17 01:23:24;;;;;;;5.72;3.30;;;13.30;92.10;;;;;;2080140;28;20095;-72
2022/07/17 01:24:25;;;;;;;6.25;3.25;;;13.30;92.00;;;;;;2071343;28;20163;-71
2022/07/17 01:25:25;;;;;;;4.88;3.30;;;13.30;92.00;;;;;;2071484;28;20018;-71
2022/07/17 01:26:26;;;;;;;6.30;3.22;;;13.30;91.90;;;;;;2079743;28;20071;-72
2022/07/17 01:27:27;;;;;;;5.55;3.35;;;13.30;92.20;;;;;;2080505;28;20097;-72
2022/07/17 01:28:30;;;;;;;5.28;3.10;;;13.30;91.90;;;;;;2072403;28;20447;-72
2022/07/17 01:29:31;;;;;;;5.93;3.28;;;13.30;91.90;;;;;;2063249;28;20030;-72
2022/07/17 01:30:33;;;;;;;4.85;2.92;;;13.30;91.80;;;;;;2062963;28;20547;-71
2022/07/17 01:31:34;;;;;;;4.13;2.75;;;13.30;91.80;;;;;;2079918;28;20068;-72
2022/07/17 01:32:37;;;;;;;6.20;3.30;;;13.20;91.90;;;;;;2079008;28;20034;-72
2022/07/17 01:33:38;;;;;;;5.28;2.95;;;13.20;92.80;;;;;;2087460;28;20036;-72
2022/07/17 01:34:39;;;;;;;5.97;3.20;;;13.30;93.10;;;;;;2087542;28;20495;-72
2022/07/17 01:35:39;;;;;;;5.88;3.10;;;13.20;94.00;;;;;;2080388;28;20097;-72
2022/07/17 01:36:40;;;;;;;4.90;3.00;;;13.20;94.50;;;;;;2079665;28;20675;-72
2022/07/17 01:37:42;;;;;;;6.18;3.40;;;13.20;94.90;;;;;;2079796;28;20394;-72
2022/07/17 01:38:43;;;;;;;5.97;2.92;;;13.20;94.90;;;;;;2079967;28;20045;-72
2022/07/17 01:42:05;;;;;;;6.45;2.97;;;13.20;95.20;;;;;;2080060;28;20017;-72
2022/07/17 01:43:06;;;;;;;4.85;3.13;;;13.20;94.40;;;;;;2087724;28;20036;-72
2022/07/17 01:44:08;;;;;;;4.25;2.90;;;13.10;94.20;;;;;;2088580;28;20112;-71
2022/07/17 01:45:10;;;;;;;4.93;3.22;;;13.10;93.90;;;;;;2083467;28;20060;-71
2022/07/17 01:46:11;;;;;;;5.38;2.97;;;13.10;93.50;;;;;;2081615;28;20442;-71
2022/07/17 01:47:16;;;;;;;5.47;2.85;;;13.00;93.30;;;;;;2081153;28;20029;-70
2022/07/17 01:48:25;;;;;;;5.22;3.03;;;13.00;93.20;;;;;;2071099;28;20564;-70
2022/07/17 01:49:26;;;;;;;4.25;3.03;;;13.00;93.00;;;;;;2064031;28;20026;-70
2022/07/17 01:50:27;;;;;;;5.90;3.00;;;13.00;93.00;;;;;;2070826;28;20093;-71
2022/07/17 01:51:28;;;;;;;4.68;2.92;;;13.00;93.10;;;;;;2079646;28;20214;-71
2022/07/17 01:52:29;;;;;;;4.95;2.92;;;13.00;93.80;;;;;;2079567;28;20025;-71
2022/07/17 01:53:29;;;;;;;5.47;3.22;;;13.00;95.10;;;;;;2079740;28;20785;-71
2022/07/17 01:54:30;;;;;;;6.63;3.10;;;13.00;96.00;;;;;;2079888;28;20021;-71
2022/07/17 01:55:31;;;;;;;5.63;3.10;;;13.00;96.20;;;;;;2079887;28;20017;-70
2022/07/17 01:56:31;;;;;;;5.40;3.28;;;13.00;96.10;;;;;;2079713;28;20133;-71
2022/07/17 01:57:32;;;;;;;5.25;3.22;;;12.90;96.00;;;;;;2079912;28;20452;-72
2022/07/17 01:58:34;;;;;;;4.57;2.75;;;12.90;96.00;;;;;;2079999;28;20022;-72
2022/07/17 01:59:35;;;;;;;4.80;2.95;;;12.90;96.00;;;;;;2079926;28;20580;-73
2022/07/17 02:00:36;;;;;;;5.47;3.00;;;12.90;96.20;;;;;;2079889;28;20533;-70
2022/07/17 02:01:37;;;;;;;4.88;2.92;;;12.90;96.80;;;;;;2079914;28;20048;-72
2022/07/17 02:02:37;;;;;;;5.68;2.78;;;12.80;96.90;;;;;;2079608;28;20022;-70
2022/07/17 02:03:38;;;;;;;4.40;2.90;;;12.80;96.70;;;;;;2037020;28;1239406;-71
2022/07/17 02:04:41;;;;;;;5.07;2.75;;;12.80;96.80;;;;;;2080460;28;20026;-72
2022/07/17 02:05:43;;;;;;;3.42;2.83;;;12.80;96.90;;;;;;2080463;28;20034;-72
2022/07/17 02:06:43;;;;;;;7.85;3.30;;;12.80;97.30;;;;;;2080535;28;20545;-71
2022/07/17 02:07:44;;;;;;;6.18;2.95;;;12.80;97.60;;;;;;2080224;28;20118;-73
2022/07/17 02:08:45;;;;;;;5.93;2.65;;;12.80;97.60;;;;;;2080359;28;20033;-71
2022/07/17 02:09:46;;;;;;;5.63;2.83;;;12.80;98.10;;;;;;2080315;28;20420;-72
2022/07/17 02:10:47;;;;;;;5.90;2.75;;;12.80;98.50;;;;;;2079885;28;20121;-72
2022/07/17 02:11:48;;;;;;;6.32;3.00;;;12.70;98.60;;;;;;2071585;28;20882;-72
2022/07/17 02:12:48;;;;;;;4.03;2.55;;;12.70;98.70;;;;;;2071290;28;20490;-72
2022/07/17 02:13:49;;;;;;;5.68;2.80;;;12.70;98.70;;;;;;2071543;28;20036;-72
2022/07/17 02:14:50;;;;;;;3.83;2.88;;;12.70;98.50;;;;;;2079806;28;20034;-72
2022/07/17 02:15:50;;;;;;;5.75;2.90;;;12.70;98.50;;;;;;2079947;28;20041;-71
2022/07/17 02:16:51;;;;;;;5.40;3.00;;;12.70;98.60;;;;;;2079747;28;20095;-71
2022/07/17 02:17:52;;;;;;;4.88;2.75;;;12.60;99.10;;;;;;2079784;28;20029;-73
2022/07/17 02:18:53;;;;;;;5.10;2.80;;;12.60;99.00;;;;;;2088396;28;20021;-71
2022/07/17 02:19:54;;;;;;;5.38;2.60;;;12.60;99.20;;;;;;2088989;28;20037;-71
2022/07/17 02:20:55;;;;;;;4.75;2.70;;;12.60;99.20;;;;;;2081015;28;20037;-71
2022/07/17 02:21:56;;;;;;;5.95;2.70;;;12.60;99.30;;;;;;2080822;28;20105;-71
2022/07/17 02:22:57;;;;;;;5.93;3.00;;;12.60;99.40;;;;;;2080515;28;20030;-71
2022/07/17 02:23:58;;;;;;;5.93;2.67;;;12.60;99.20;;;;;;2087794;28;20029;-71
2022/07/17 02:24:59;;;;;;;6.47;2.80;;;12.50;99.10;;;;;;2088496;28;20088;-71
2022/07/17 02:26:18;;;;;;;6.70;2.90;;;12.50;99.00;;;;;;2080624;28;20025;-71
2022/07/17 02:27:19;;;;;;;6.88;2.92;;;12.50;98.90;;;;;;2080244;28;20036;-73
2022/07/17 02:28:21;;;;;;;8.07;2.88;;;12.50;99.00;;;;;;2080855;28;20037;-71
2022/07/17 02:29:24;;;;;;;6.00;2.72;;;12.40;99.10;;;;;;2080582;28;20022;-72
2022/07/17 02:30:25;;;;;;;4.53;2.80;;;12.40;99.20;;;;;;2080376;28;20044;-71
2022/07/17 02:31:26;;;;;;;4.97;2.97;;;12.40;99.30;;;;;;2071704;28;20044;-71
2022/07/17 02:32:26;;;;;;;4.57;2.80;;;12.40;99.40;;;;;;2071397;28;20025;-72
2022/07/17 02:33:27;;;;;;;4.28;2.90;;;12.40;99.50;;;;;;2072128;28;20026;-72
2022/07/17 02:34:28;;;;;;;6.22;3.00;;;12.40;99.60;;;;;;2071819;28;20034;-71
2022/07/17 02:35:28;;;;;;;6.10;2.67;;;12.40;99.60;;;;;;2071199;28;20408;-71
2022/07/17 02:36:29;;;;;;;3.97;2.78;;;12.40;99.80;;;;;;2079522;28;20060;-71
2022/07/17 02:37:30;;;;;;;5.95;2.88;;;12.40;99.90;;;;;;2079930;28;20526;-71
2022/07/17 02:38:31;;;;;;;5.00;2.63;;;12.40;99.90;;;;;;2079480;28;20494;-71
2022/07/17 02:39:31;;;;;;;6.25;2.85;;;12.40;99.90;;;;;;2070953;28;20030;-71
2022/07/17 02:40:32;;;;;;;5.20;2.80;;;12.40;99.90;;;;;;2070810;28;20681;-71
2022/07/17 02:41:33;;;;;;;5.22;2.88;;;12.40;99.90;;;;;;2079663;28;20475;-71
2022/07/17 02:42:33;;;;;;;5.18;3.05;;;12.30;99.90;;;;;;2079786;28;20852;-71
2022/07/17 02:43:34;;;;;;;3.63;2.70;;;12.30;99.90;;;;;;2079606;28;20045;-71
2022/07/17 02:44:35;;;;;;;5.82;2.58;;;12.30;99.90;;;;;;2086649;28;20024;-71
2022/07/17 02:45:36;;;;;;;5.15;2.97;;;12.30;99.90;;;;;;2079491;28;20025;-71
2022/07/17 02:46:36;;;;;;;4.30;2.90;;;12.30;99.90;;;;;;2071322;28;20702;-71
2022/07/17 02:47:37;;;;;;;6.45;2.75;;;12.20;99.90;;;;;;2079197;28;20034;-71
2022/07/17 02:48:38;;;;;;;4.47;2.53;;;12.20;99.90;;;;;;2070944;28;20542;-71
2022/07/17 02:49:41;;;;;;;5.10;2.80;;;12.20;99.90;;;;;;2071274;28;20045;-71
2022/07/17 02:50:42;;;;;;;6.15;2.65;;;12.20;99.90;;;;;;2081336;28;20476;-71
2022/07/17 02:51:43;;;;;;;5.07;2.70;;;12.20;99.90;;;;;;2087479;28;20025;-71
2022/07/17 02:52:48;;;;;;;4.75;2.60;;;12.10;99.90;;;;;;2088479;28;20407;-71
2022/07/17 02:53:49;;;;;;;4.55;2.70;;;12.10;99.90;;;;;;2080851;28;20045;-71
2022/07/17 02:54:50;;;;;;;6.80;2.90;;;12.10;99.90;;;;;;2080788;28;20476;-71
2022/07/17 02:55:51;;;;;;;5.65;2.58;;;12.10;99.90;;;;;;2080773;28;20040;-71
2022/07/17 02:56:52;;;;;;;5.60;2.90;;;12.00;99.90;;;;;;2080627;28;20468;-71
2022/07/17 02:57:53;;;;;;;3.42;2.70;;;12.00;99.90;;;;;;2080637;28;20048;-71
2022/07/17 02:58:54;;;;;;;3.88;2.63;;;12.00;99.90;;;;;;2080759;28;20055;-71
2022/07/17 02:59:55;;;;;;;3.92;2.60;;;12.00;99.90;;;;;;2080914;28;20120;-71
2022/07/17 03:00:55;;;;;;;4.07;2.50;;;12.00;99.90;;;;;;2080041;28;20029;-71
2022/07/17 03:01:56;;;;;;;4.65;2.63;;;12.10;99.90;;;;;;2079786;28;20392;-71
2022/07/17 03:02:57;;;;;;;4.25;2.70;;;12.00;99.90;;;;;;2079488;28;20492;-71
2022/07/17 03:03:57;;;;;;;4.47;2.50;;;12.00;99.90;;;;;;2079658;28;20037;-71
2022/07/17 03:04:58;;;;;;;3.03;2.40;;;12.00;99.90;;;;;;2079788;28;20049;-71
2022/07/17 03:05:58;;;;;;;4.22;2.38;;;12.00;99.90;;;;;;2079682;28;20029;-71
2022/07/17 03:07:02;;;;;;;4.68;2.60;;;12.00;99.90;;;;;;2080577;28;20033;-71
2022/07/17 03:08:03;;;;;;;5.68;2.75;;;12.00;99.90;;;;;;2064739;28;20038;-71
2022/07/17 03:09:04;;;;;;;5.97;2.80;;;12.00;99.90;;;;;;2056741;28;20039;-71
2022/07/17 03:10:07;;;;;;;4.78;2.58;;;12.00;99.90;;;;;;2063569;28;20122;-71
2022/07/17 03:11:07;;;;;;;5.53;3.00;;;12.00;99.90;;;;;;2071356;28;20037;-71
2022/07/17 03:12:11;;;;;;;4.95;2.38;;;12.00;99.90;;;;;;2080525;28;20022;-71
2022/07/17 03:13:12;;;;;;;5.50;2.53;;;12.00;99.90;;;;;;2073756;28;20026;-71
2022/07/17 03:14:13;;;;;;;5.18;2.58;;;12.00;99.90;;;;;;2073857;28;20150;-71
2022/07/17 03:15:15;;;;;;;4.50;2.50;;;11.90;99.90;;;;;;2082685;28;20752;-71
2022/07/17 03:16:18;;;;;;;4.82;2.40;;;11.90;99.90;;;;;;2065351;28;20073;-71
2022/07/17 03:17:19;;;;;;;4.18;2.47;;;11.90;99.90;;;;;;2065345;28;20058;-71
2022/07/17 03:18:20;;;;;;;4.60;2.25;;;11.90;99.90;;;;;;2070783;28;20026;-71
2022/07/17 03:19:23;;;;;;;3.95;2.30;;;11.90;99.90;;;;;;2071832;28;20026;-71
2022/07/17 03:20:24;;;;;;;4.55;2.50;;;12.00;99.90;;;;;;2071295;28;20040;-71
2022/07/17 03:21:25;;;;;;;4.43;2.45;;;12.00;99.90;;;;;;2070725;28;20033;-71
2022/07/17 03:22:26;;;;;;;4.13;2.40;;;12.00;99.90;;;;;;2079393;28;20100;-71
2022/07/17 03:23:27;;;;;;;5.55;2.40;;;12.00;99.90;;;;;;2079656;28;20017;-71
2022/07/17 03:24:28;;;;;;;4.68;2.53;;;12.00;99.90;;;;;;2079785;28;20079;-71
2022/07/17 03:25:30;;;;;;;4.25;2.45;;;12.00;99.90;;;;;;2079869;28;20027;-72
2022/07/17 03:26:31;;;;;;;4.90;2.40;;;12.10;99.90;;;;;;2074600;28;20026;-72
2022/07/17 03:27:32;;;;;;;4.55;2.53;;;12.10;99.90;;;;;;2064417;28;20023;-71
2022/07/17 03:28:33;;;;;;;5.20;2.50;;;12.10;99.90;;;;;;2070825;28;20030;-71
2022/07/17 03:29:33;;;;;;;4.53;2.50;;;12.10;99.90;;;;;;2079825;28;20060;-71
2022/07/17 03:30:34;;;;;;;5.35;2.45;;;12.10;99.90;;;;;;2079615;28;20471;-71
2022/07/17 03:31:35;;;;;;;4.97;2.45;;;12.00;99.90;;;;;;2080889;28;20032;-71
2022/07/17 03:32:35;;;;;;;2.97;2.20;;;12.00;99.90;;;;;;2081069;28;20068;-72
2022/07/17 03:33:36;;;;;;;4.13;2.20;;;12.00;99.90;;;;;;2081916;28;20025;-71
2022/07/17 03:34:38;;;;;;;7.80;2.58;;;12.00;99.90;;;;;;2083603;28;20038;-72
2022/07/17 03:35:39;;;;;;;4.78;2.50;;;12.00;99.90;;;;;;2091090;28;20488;-71
2022/07/17 03:36:40;;;;;;;6.20;2.58;;;12.00;99.90;;;;;;2090413;28;20058;-72
2022/07/17 03:37:43;;;;;;;3.47;2.40;;;12.00;99.90;;;;;;2081205;28;20503;-71
2022/07/17 03:38:43;;;;;;;6.50;3.10;;;12.00;99.90;;;;;;2079811;28;20466;-71
2022/07/17 03:39:44;;;;;;;6.95;2.90;;;12.00;99.90;;;;;;2079814;28;20030;-71
2022/07/17 03:40:45;;;;;;;5.43;2.95;;;12.00;99.90;;;;;;2079479;28;20037;-71
2022/07/17 03:41:46;;;;;;;6.22;2.90;;;12.00;99.90;;;;;;2079711;28;20034;-72
2022/07/17 03:42:46;;;;;;;7.40;3.35;;;12.00;99.90;;;;;;2079364;28;20404;-72
2022/07/17 03:43:50;;;;;;;6.45;3.20;;;12.00;99.90;;;;;;2070702;28;20486;-72
2022/07/17 03:44:51;;;;;;;5.85;3.30;;;12.00;99.90;;;;;;2070792;28;20084;-71
2022/07/17 03:45:51;;;;;;;5.18;3.17;;;12.10;99.90;;;;;;2079683;28;20029;-71
2022/07/17 03:46:52;;;;;;;5.45;3.22;;;12.10;99.90;;;;;;2070659;28;20531;-71
2022/07/17 03:47:53;;;;;;;4.75;3.25;;;12.10;99.90;;;;;;2070769;28;20038;-71
2022/07/17 03:48:53;;;;;;;4.80;3.20;;;12.10;99.90;;;;;;2079422;28;20096;-72
2022/07/17 03:49:54;;;;;;;7.65;3.42;;;12.10;99.90;;;;;;2079544;28;20056;-72
2022/07/17 03:50:55;;;;;;;6.63;3.50;;;12.10;99.90;;;;;;2079379;28;20030;-72
2022/07/17 03:51:55;;;;;;;7.18;3.80;;;12.20;99.90;;;;;;2079948;28;20132;-72
2022/07/17 03:52:56;;;;;;;8.00;3.50;;;12.10;99.90;;;;;;2079527;28;20117;-71
2022/07/17 03:53:57;;;;;;;5.05;3.40;;;12.10;99.90;;;;;;2079474;28;20034;-70
2022/07/17 03:54:57;;;;;;;6.47;3.53;;;12.10;99.90;;;;;;2079421;28;20026;-72
2022/07/17 03:55:58;;;;;;;5.20;3.60;;;12.20;99.90;;;;;;2080402;28;20033;-71
2022/07/17 03:59:21;;;;;;;5.95;3.65;;;12.20;99.90;;;;;;2081083;28;20045;-72
2022/07/17 04:00:21;;;;;;;6.55;3.45;;;12.20;99.90;;;;;;2081152;28;20034;-72
2022/07/17 04:01:22;;;;;;;6.15;3.30;;;12.20;99.90;;;;;;2080902;28;20064;-69
2022/07/17 04:02:23;;;;;;;7.80;3.35;;;12.30;99.90;;;;;;2080920;28;20112;-69
2022/07/17 04:03:23;;;;;;;5.32;3.42;;;12.30;99.90;;;;;;2080836;28;20124;-70
2022/07/17 04:04:24;;;;;;;5.70;3.22;;;12.30;99.90;;;;;;2080931;28;20029;-70
2022/07/17 04:05:25;;;;;;;5.90;3.10;;;12.30;99.90;;;;;;2080890;28;20483;-70
2022/07/17 04:06:25;;;;;;;5.78;3.55;;;12.30;99.90;;;;;;2072316;28;20071;-70
2022/07/17 04:07:26;;;;;;;6.13;3.47;;;12.30;99.90;;;;;;2072182;28;20455;-71
2022/07/17 04:08:27;;;;;;;5.65;3.47;;;12.30;99.90;;;;;;2081149;28;20030;-71
2022/07/17 04:09:28;;;;;;;4.20;3.40;;;12.40;99.90;;;;;;2081239;28;20025;-71
2022/07/17 04:10:28;;;;;;;4.55;3.05;;;12.40;99.90;;;;;;2081101;28;20017;-71
2022/07/17 04:11:29;;;;;;;5.50;3.20;;;12.40;99.90;;;;;;2081302;28;20052;-71
2022/07/17 04:12:29;;;;;;;6.40;3.58;;;12.50;99.90;;;;;;2081247;28;20021;-73
2022/07/17 04:13:30;;;;;;;6.22;3.35;;;12.50;99.80;;;;;;2081405;28;20055;-71
2022/07/17 04:14:31;;;;;;;7.22;3.95;;;12.60;99.80;;;;;;2081165;28;20017;-71
2022/07/17 04:15:52;;;;;;;5.22;3.30;;;12.70;99.60;;;;;;2081219;28;20052;-71
2022/07/17 04:16:52;;;;;;;5.75;3.63;;;12.90;99.50;;;;;;2081288;28;20030;-71
2022/07/17 04:17:53;;;;;;;5.80;3.72;;;13.20;98.70;;;;;;2081082;28;20127;-71
2022/07/17 04:18:54;;;;;;;6.10;3.53;;;13.50;98.00;;;;;;2072116;28;20034;-71
2022/07/17 04:19:54;;;;;;;6.35;3.55;;;14.00;97.00;;;;;;2072438;28;20026;-71
2022/07/17 04:21:00;;;;;;;9.65;3.75;;;14.40;95.60;;;;;;2081311;28;20045;-71
2022/07/17 04:22:00;;;;;;;6.30;3.40;;;14.90;94.30;;;;;;2081244;28;20025;-71
2022/07/17 04:23:01;;;;;;;5.00;3.30;;;15.40;93.10;;;;;;2081065;28;20037;-71
2022/07/17 04:24:01;;;;;;;4.88;3.30;;;15.70;92.00;;;;;;2080998;28;20045;-72
2022/07/17 04:25:02;;;;;;;4.85;3.03;;;16.10;91.10;;;;;;2080950;28;20029;-71
2022/07/17 04:26:06;;;;;;;5.15;3.25;;;16.40;90.00;;;;;;2072296;28;20029;-71
2022/07/17 04:27:07;;;;;;;5.53;3.55;;;16.70;88.20;;;;;;2072239;28;20463;-70
2022/07/17 04:28:09;;;;;;;6.57;3.30;;;17.00;86.40;;;;;;2072156;28;20069;-71
2022/07/17 04:29:10;;;;;;;6.30;3.60;;;17.20;84.90;;;;;;2072212;28;20096;-73
2022/07/17 04:30:10;;;;;;;4.47;2.90;;;17.40;83.70;;;;;;2080510;28;20068;-71
2022/07/17 04:31:11;;;;;;;7.38;3.25;;;17.60;82.80;;;;;;2087980;28;20447;-71
2022/07/17 04:32:12;;;;;;;7.22;3.35;;;17.80;81.80;;;;;;2088474;28;20076;-71
2022/07/17 04:33:13;;;;;;;6.15;3.20;;;18.00;80.80;;;;;;2080657;28;20040;-71
2022/07/17 04:34:13;;;;;;;5.93;3.38;;;18.10;79.80;;;;;;2082565;28;20065;-72
2022/07/17 04:35:14;;;;;;;6.20;2.88;;;18.30;79.00;;;;;;2084992;28;20029;-71
2022/07/17 04:36:15;;;;;;;4.93;3.17;;;18.40;78.00;;;;;;2086090;28;20029;-71
2022/07/17 04:37:15;;;;;;;6.47;3.20;;;18.60;77.30;;;;;;2085779;28;20653;-71
2022/07/17 04:38:16;;;;;;;4.25;3.20;;;18.80;76.40;;;;;;2085572;28;20026;-71
2022/07/17 04:39:17;;;;;;;6.30;3.10;;;18.90;75.60;;;;;;2085827;28;20133;-71
2022/07/17 04:40:18;;;;;;;5.45;3.05;;;19.10;74.70;;;;;;2085690;28;20083;-71
2022/07/17 04:41:18;;;;;;;5.63;3.20;;;19.20;74.20;;;;;;2086048;28;20026;-72
2022/07/17 04:42:25;;;;;;;5.05;3.50;;;19.30;73.40;;;;;;2086386;28;20033;-71
2022/07/17 04:43:26;;;;;;;4.22;2.97;;;19.40;73.00;;;;;;2086030;28;20075;-72
2022/07/17 04:44:27;;;;;;;5.25;3.08;;;19.50;72.40;;;;;;2086397;28;20033;-71
2022/07/17 04:45:28;;;;;;;7.75;3.10;;;19.60;71.80;;;;;;2087254;28;20038;-71
2022/07/17 04:46:28;;;;;;;6.22;3.22;;;19.70;71.20;;;;;;2086939;28;20026;-71
2022/07/17 04:47:29;;;;;;;7.07;3.30;;;19.70;70.70;;;;;;2085044;28;20026;-71
2022/07/17 04:48:30;;;;;;;7.43;2.97;;;19.80;70.40;;;;;;2080542;28;20025;-72
2022/07/17 04:49:30;;;;;;;6.30;3.25;;;20.00;69.70;;;;;;2064378;28;20045;-71
2022/07/17 04:50:31;;;;;;;4.93;2.90;;;20.10;69.30;;;;;;2055789;28;20019;-71
2022/07/17 04:51:32;;;;;;;6.70;2.80;;;20.20;69.10;;;;;;2071863;28;20068;-71
2022/07/17 04:52:32;;;;;;;5.38;2.70;;;20.30;69.30;;;;;;2071830;28;20460;-71
2022/07/17 04:53:35;;;;;;;4.85;2.83;;;20.40;67.70;;;;;;2071768;28;20014;-71
2022/07/17 04:54:36;;;;;;;4.70;2.70;;;20.60;67.20;;;;;;2080537;28;20431;-74
2022/07/17 04:55:37;;;;;;;5.60;2.53;;;20.60;66.30;;;;;;2080409;28;20022;-71
2022/07/17 04:56:38;;;;;;;4.75;2.50;;;20.70;65.90;;;;;;2080416;28;20116;-71
2022/07/17 04:57:38;;;;;;;6.47;2.50;;;20.80;65.20;;;;;;2080303;28;20124;-71
2022/07/17 04:58:39;;;;;;;4.15;2.50;;;20.80;65.10;;;;;;2088203;28;20634;-71
2022/07/17 04:59:40;;;;;;;4.45;2.80;;;20.90;64.70;;;;;;2088137;28;20109;-71
2022/07/17 05:00:40;;;;;;;5.82;2.45;;;21.00;64.60;;;;;;2080461;28;20163;-71
2022/07/17 05:01:41;;;;;;;4.22;2.30;;;21.10;63.90;;;;;;2080350;28;20107;-72
2022/07/17 05:02:42;;;;;;;3.30;2.17;;;21.10;63.20;;;;;;2080387;28;20516;-73
2022/07/17 05:03:42;;;;;;;4.18;2.10;;;21.10;62.90;;;;;;2080270;28;20040;-72
2022/07/17 05:04:43;;;;;;;4.28;2.10;;;21.10;62.70;;;;;;2071813;28;20026;-70
2022/07/17 05:05:44;;;;;;;4.40;2.17;;;21.10;62.60;;;;;;2071735;28;20057;-72
2022/07/17 05:06:44;;;;;;;3.85;2.17;;;21.10;62.40;;;;;;2080496;28;20029;-71
2022/07/17 05:07:45;;;;;;;4.30;2.00;;;21.10;62.30;;;;;;2079905;28;20029;-70
2022/07/17 05:08:46;;;;;;;3.17;1.88;;;21.20;62.30;;;;;;2071692;28;20037;-70
2022/07/17 05:09:46;;;;;;;3.08;1.90;;;21.20;62.00;;;;;;2079896;28;20486;-72
2022/07/17 05:10:47;;;;;;;2.67;1.80;;;21.30;61.80;;;;;;2079859;28;20111;-75
2022/07/17 05:11:48;;;;;;;4.28;1.98;;;21.30;61.60;;;;;;2071900;28;20036;-71
2022/07/17 05:12:48;;;;;;;6.07;2.03;;;21.30;61.40;;;;;;2080127;28;20091;-71
2022/07/17 05:13:49;;;;;;;4.15;2.08;;;21.30;61.40;;;;;;2071560;28;20038;-72
2022/07/17 05:14:50;;;;;;;4.07;2.10;;;21.20;61.20;;;;;;2071646;28;20036;-72
2022/07/17 05:15:50;;;;;;;4.18;1.98;;;21.10;61.40;;;;;;2080444;28;20025;-71
2022/07/17 05:16:51;;;;;;;4.65;2.30;;;21.10;61.90;;;;;;2080347;28;20466;-72
2022/07/17 05:17:52;;;;;;;3.80;2.13;;;21.20;61.90;;;;;;2080367;28;20021;-72
2022/07/17 05:18:52;;;;;;;4.25;2.00;;;21.30;61.80;;;;;;2080543;28;20032;-72
2022/07/17 05:19:53;;;;;;;3.53;2.03;;;21.30;61.70;;;;;;2080632;28;20045;-72
2022/07/17 05:20:54;;;;;;;4.82;2.05;;;21.50;61.40;;;;;;2080120;28;20033;-71
2022/07/17 05:21:54;;;;;;;5.40;1.95;;;21.50;61.00;;;;;;2080399;28;20481;-71
2022/07/17 05:22:56;;;;;;;5.72;2.30;;;21.50;60.90;;;;;;2071564;28;20117;-71
2022/07/17 05:23:57;;;;;;;3.38;2.15;;;21.50;60.80;;;;;;2071587;28;20036;-72